Time;durP1;ratioP1;P1;durP2;ratioP2;P2;SDS_P1;SDS_P2;PMS_P1;PMS_P2;Temp;Humidity;BMP_temperature;BMP_pressure;BME280_temperature;BME280_humidity;BME280_pressure;Samples;Min_cycle;Max_cycle;Signal;HPM_P1;HPM_P2
2024/03/25 00:00:18;;;;;;;1.95;0.40;;;17.80;85.60;;;;;;5030876;28;20033;-44
2024/03/25 00:02:43;;;;;;;1.40;0.70;;;17.80;85.60;;;;;;5030699;28;20030;-43
2024/03/25 00:05:09;;;;;;;1.27;0.65;;;17.80;85.60;;;;;;5030813;28;20083;-44
2024/03/25 00:07:36;;;;;;;1.52;0.68;;;17.80;85.60;;;;;;5030718;28;20033;-43
2024/03/25 00:10:03;;;;;;;0.90;0.60;;;17.80;85.60;;;;;;5029502;28;20033;-43
2024/03/25 00:12:28;;;;;;;0.88;0.60;;;17.70;85.50;;;;;;5030815;28;20029;-43
2024/03/25 00:14:54;;;;;;;0.98;0.60;;;17.80;86.40;;;;;;5030879;28;20104;-43
2024/03/25 00:17:19;;;;;;;0.98;0.50;;;17.70;85.60;;;;;;5030398;28;20029;-43
2024/03/25 00:19:51;;;;;;;0.77;0.40;;;17.70;85.60;;;;;;5030713;28;20017;-44
2024/03/25 00:22:19;;;;;;;0.80;0.30;;;17.70;85.60;;;;;;5030997;28;20377;-44
2024/03/25 00:24:48;;;;;;;1.05;0.50;;;17.70;85.60;;;;;;5031392;28;20029;-44
2024/03/25 00:27:14;;;;;;;1.38;0.50;;;17.70;85.70;;;;;;5031957;28;20091;-44
2024/03/25 00:29:40;;;;;;;1.50;0.70;;;17.70;85.60;;;;;;5034112;28;20037;-44
2024/03/25 00:32:06;;;;;;;1.05;0.50;;;17.70;85.60;;;;;;5034252;28;20029;-44
2024/03/25 00:34:32;;;;;;;0.88;0.43;;;17.70;85.60;;;;;;5034213;28;20029;-44
2024/03/25 00:36:58;;;;;;;0.55;0.40;;;17.70;85.60;;;;;;5034003;28;20055;-43
2024/03/25 00:39:25;;;;;;;1.38;0.70;;;17.70;85.60;;;;;;5034101;28;20064;-43
2024/03/25 00:41:51;;;;;;;2.17;0.70;;;17.70;85.70;;;;;;5034063;28;20021;-44
2024/03/25 00:44:17;;;;;;;1.17;0.60;;;17.70;85.70;;;;;;5033868;28;20021;-44
2024/03/25 00:46:43;;;;;;;1.60;0.60;;;17.70;85.70;;;;;;5033877;28;20037;-43
2024/03/25 00:49:09;;;;;;;0.75;0.50;;;17.70;85.70;;;;;;5033878;28;20037;-43
2024/03/25 00:51:35;;;;;;;1.50;0.52;;;17.70;85.70;;;;;;5033870;28;20104;-43
2024/03/25 00:54:01;;;;;;;0.90;0.40;;;17.60;85.60;;;;;;5033869;28;20105;-43
2024/03/25 00:56:27;;;;;;;0.80;0.50;;;17.70;85.70;;;;;;5033545;28;20485;-44
2024/03/25 00:58:53;;;;;;;1.50;0.57;;;17.70;85.70;;;;;;5033571;28;20036;-43
2024/03/25 01:01:18;;;;;;;1.13;0.60;;;17.60;85.70;;;;;;5033600;28;20104;-44
2024/03/25 01:03:44;;;;;;;2.10;0.65;;;17.60;85.70;;;;;;5033721;28;20025;-44
2024/03/25 01:06:09;;;;;;;1.80;0.60;;;17.60;85.70;;;;;;5033526;28;20032;-44
2024/03/25 01:08:35;;;;;;;1.38;0.45;;;17.60;86.50;;;;;;5033486;28;20048;-42
2024/03/25 01:11:01;;;;;;;1.60;0.50;;;17.60;85.80;;;;;;5033554;28;20028;-43
2024/03/25 01:13:26;;;;;;;1.17;0.70;;;17.60;85.70;;;;;;5033432;28;20029;-41
2024/03/25 01:15:52;;;;;;;0.75;0.63;;;17.60;85.80;;;;;;5033564;28;20029;-41
2024/03/25 01:18:18;;;;;;;1.70;0.70;;;17.60;85.80;;;;;;5033334;28;20022;-43
2024/03/25 01:20:44;;;;;;;0.88;0.60;;;17.60;85.80;;;;;;5033235;28;20108;-41
2024/03/25 01:23:10;;;;;;;1.25;0.60;;;17.60;85.80;;;;;;5033303;28;20026;-41
2024/03/25 01:25:36;;;;;;;0.98;0.55;;;17.60;85.80;;;;;;5033180;28;20469;-44
2024/03/25 01:28:01;;;;;;;0.82;0.60;;;17.60;85.80;;;;;;5033244;28;20034;-41
2024/03/25 01:30:28;;;;;;;0.85;0.40;;;17.50;85.80;;;;;;5033094;28;20025;-40
2024/03/25 01:32:54;;;;;;;1.98;0.63;;;17.60;85.80;;;;;;5033282;28;20399;-38
2024/03/25 01:35:20;;;;;;;1.13;0.45;;;17.50;85.80;;;;;;5032994;28;20029;-42
2024/03/25 01:37:46;;;;;;;1.60;0.75;;;17.50;86.60;;;;;;5032644;28;20480;-44
2024/03/25 01:40:12;;;;;;;0.90;0.50;;;17.50;85.90;;;;;;5032286;28;20392;-42
2024/03/25 01:42:37;;;;;;;1.10;0.70;;;17.50;85.90;;;;;;5032902;28;20021;-44
2024/03/25 01:45:04;;;;;;;1.00;0.50;;;17.50;85.90;;;;;;5032999;28;20064;-41
2024/03/25 01:47:33;;;;;;;1.98;0.57;;;17.60;86.00;;;;;;5032708;28;20530;-40
2024/03/25 01:49:59;;;;;;;2.35;0.70;;;17.50;85.90;;;;;;5032862;28;20229;-41
2024/03/25 01:52:26;;;;;;;1.38;0.50;;;17.50;85.90;;;;;;5031510;28;20025;-41
2024/03/25 01:54:53;;;;;;;1.63;0.57;;;17.50;85.80;;;;;;5032739;28;20033;-42
2024/03/25 01:57:19;;;;;;;1.08;0.60;;;17.50;85.80;;;;;;5032260;28;20037;-41
2024/03/25 01:59:46;;;;;;;1.80;0.70;;;17.50;85.90;;;;;;5032543;28;20021;-41
2024/03/25 02:02:12;;;;;;;0.95;0.47;;;17.50;85.90;;;;;;5032578;28;20026;-42
2024/03/25 02:04:40;;;;;;;1.40;0.60;;;17.50;85.90;;;;;;5032492;28;20029;-42
2024/03/25 02:07:10;;;;;;;1.45;0.65;;;17.50;85.90;;;;;;5032422;28;20026;-39
2024/03/25 02:09:36;;;;;;;1.85;0.68;;;17.50;85.90;;;;;;5032687;28;20171;-43
2024/03/25 02:12:02;;;;;;;1.27;0.70;;;17.50;85.90;;;;;;5032539;28;20112;-42
2024/03/25 02:14:28;;;;;;;0.90;0.45;;;17.50;85.90;;;;;;5032537;28;20030;-42
2024/03/25 02:16:53;;;;;;;1.30;0.63;;;17.50;85.90;;;;;;5032098;28;20485;-39
2024/03/25 02:19:21;;;;;;;1.10;0.65;;;17.50;85.90;;;;;;5032148;28;20029;-42
2024/03/25 02:21:47;;;;;;;1.48;0.50;;;17.40;85.80;;;;;;5032110;28;20021;-40
2024/03/25 02:24:15;;;;;;;1.75;0.80;;;17.40;85.80;;;;;;5032032;28;20025;-43
2024/03/25 02:26:40;;;;;;;1.17;0.55;;;17.40;85.80;;;;;;5031968;28;20100;-44
2024/03/25 02:29:09;;;;;;;1.10;0.70;;;17.40;85.80;;;;;;5030654;28;20113;-44
2024/03/25 02:31:35;;;;;;;0.85;0.55;;;17.40;86.60;;;;;;5031905;28;20025;-44
2024/03/25 02:34:00;;;;;;;1.15;0.60;;;17.40;85.80;;;;;;5031992;28;20381;-40
2024/03/25 02:36:26;;;;;;;1.13;0.60;;;17.40;85.90;;;;;;5031734;28;20029;-40
2024/03/25 02:38:51;;;;;;;1.27;0.60;;;17.40;85.90;;;;;;5031739;28;20025;-40
2024/03/25 02:41:17;;;;;;;3.45;0.73;;;17.40;85.90;;;;;;5031802;28;20100;-41
2024/03/25 02:43:43;;;;;;;1.73;0.50;;;17.40;85.80;;;;;;5031883;28;20022;-40
2024/03/25 02:46:08;;;;;;;1.48;0.57;;;17.40;85.90;;;;;;5031893;28;20454;-41
2024/03/25 02:48:34;;;;;;;1.13;0.52;;;17.40;85.90;;;;;;5031602;28;20481;-43
2024/03/25 02:51:00;;;;;;;1.50;0.60;;;17.40;86.00;;;;;;5031502;28;20032;-44
2024/03/25 02:53:25;;;;;;;1.48;0.70;;;17.40;86.00;;;;;;5031467;28;20017;-43
2024/03/25 02:55:51;;;;;;;1.77;0.70;;;17.40;86.00;;;;;;5031213;28;20037;-40
2024/03/25 02:58:17;;;;;;;1.50;0.73;;;17.30;85.90;;;;;;5031825;28;20083;-42
2024/03/25 03:00:42;;;;;;;1.05;0.60;;;17.40;86.00;;;;;;5031644;28;20028;-43
2024/03/25 03:03:08;;;;;;;0.93;0.57;;;17.40;86.00;;;;;;5031574;28;20022;-44
2024/03/25 03:05:35;;;;;;;0.95;0.47;;;17.40;86.10;;;;;;5031465;28;20125;-44
2024/03/25 03:08:00;;;;;;;1.50;0.77;;;17.30;86.00;;;;;;5031298;28;20029;-43
2024/03/25 03:10:26;;;;;;;1.25;0.60;;;17.30;86.00;;;;;;5031339;28;20504;-43
2024/03/25 03:12:51;;;;;;;1.15;0.70;;;17.30;86.00;;;;;;5031762;28;20392;-42
2024/03/25 03:15:17;;;;;;;1.30;0.77;;;17.30;86.10;;;;;;5031358;28;20029;-40
2024/03/25 03:17:43;;;;;;;1.95;0.70;;;17.30;86.00;;;;;;5031226;28;20029;-43
2024/03/25 03:20:09;;;;;;;1.17;0.57;;;17.30;86.00;;;;;;5031223;28;20253;-41
2024/03/25 03:22:35;;;;;;;2.28;0.82;;;17.40;86.10;;;;;;5031382;28;20045;-44
2024/03/25 03:25:01;;;;;;;1.25;0.68;;;17.30;86.10;;;;;;5031262;28;20111;-44
2024/03/25 03:27:26;;;;;;;0.93;0.52;;;17.40;86.10;;;;;;5031084;28;20090;-44
2024/03/25 03:29:52;;;;;;;1.52;0.65;;;17.30;86.10;;;;;;5031144;28;20026;-44
2024/03/25 03:32:18;;;;;;;1.10;0.63;;;17.30;86.10;;;;;;5031218;28;20025;-44
2024/03/25 03:34:43;;;;;;;0.93;0.60;;;17.30;86.10;;;;;;5031330;28;20439;-44
2024/03/25 03:37:09;;;;;;;1.75;0.70;;;17.30;86.10;;;;;;5031114;28;20104;-43
2024/03/25 03:39:35;;;;;;;0.80;0.50;;;17.30;86.10;;;;;;5030931;28;20029;-42
2024/03/25 03:42:00;;;;;;;1.67;0.80;;;17.30;86.10;;;;;;5031020;28;20053;-44
2024/03/25 03:44:26;;;;;;;1.15;0.55;;;17.30;86.10;;;;;;5031075;28;20489;-44
2024/03/25 03:46:51;;;;;;;1.52;0.68;;;17.30;86.10;;;;;;5030960;28;20043;-43
2024/03/25 03:49:17;;;;;;;1.42;0.70;;;17.30;86.10;;;;;;5030932;28;20071;-43
2024/03/25 03:51:43;;;;;;;1.10;0.60;;;17.30;86.20;;;;;;5031409;28;20488;-44
2024/03/25 03:54:08;;;;;;;1.50;0.65;;;17.20;86.10;;;;;;5031020;28;20022;-44
2024/03/25 03:56:34;;;;;;;1.70;0.57;;;17.30;86.20;;;;;;5030547;28;20081;-44
2024/03/25 03:58:59;;;;;;;2.08;0.77;;;17.30;86.20;;;;;;5030999;28;20061;-42
2024/03/25 04:01:25;;;;;;;2.97;0.80;;;17.30;86.20;;;;;;5031156;28;20025;-43
2024/03/25 04:03:51;;;;;;;1.17;0.43;;;17.30;86.20;;;;;;5034745;28;20032;-44
2024/03/25 04:06:17;;;;;;;1.15;0.63;;;17.20;86.10;;;;;;5034751;28;20033;-44
2024/03/25 04:08:43;;;;;;;1.85;0.70;;;17.20;86.10;;;;;;5034577;28;20485;-44
2024/03/25 04:11:09;;;;;;;1.02;0.50;;;17.20;86.20;;;;;;5034559;28;20029;-44
2024/03/25 04:13:35;;;;;;;1.30;0.55;;;17.30;86.30;;;;;;5034677;28;20017;-43
2024/03/25 04:16:03;;;;;;;1.10;0.50;;;17.20;86.20;;;;;;5034472;28;20032;-43
2024/03/25 04:18:29;;;;;;;1.23;0.70;;;17.20;86.20;;;;;;5034433;28;20711;-43
2024/03/25 04:20:54;;;;;;;1.15;0.52;;;17.20;86.20;;;;;;5034427;28;20120;-44
2024/03/25 04:23:20;;;;;;;2.03;0.63;;;17.20;86.20;;;;;;5034459;28;20084;-44
2024/03/25 04:25:46;;;;;;;2.08;0.85;;;17.20;86.20;;;;;;5034427;28;20032;-43
2024/03/25 04:28:11;;;;;;;2.50;0.73;;;17.20;86.20;;;;;;5034209;28;20030;-43
2024/03/25 04:30:37;;;;;;;1.65;0.68;;;17.20;86.20;;;;;;5034512;28;20026;-44
2024/03/25 04:33:03;;;;;;;1.17;0.55;;;17.20;86.20;;;;;;5034551;28;20375;-44
2024/03/25 04:35:28;;;;;;;1.73;0.70;;;17.20;86.20;;;;;;5034156;28;20029;-44
2024/03/25 04:37:57;;;;;;;1.17;0.55;;;17.20;86.20;;;;;;5033903;28;20030;-44
2024/03/25 04:40:22;;;;;;;1.02;0.52;;;17.20;86.20;;;;;;5034001;28;20020;-44
2024/03/25 04:42:48;;;;;;;1.00;0.68;;;17.20;86.20;;;;;;5034081;28;20476;-44
2024/03/25 04:45:14;;;;;;;2.45;0.68;;;17.20;86.20;;;;;;5034027;28;20388;-44
2024/03/25 04:47:40;;;;;;;0.98;0.65;;;17.20;86.20;;;;;;5034007;28;20527;-44
2024/03/25 04:50:06;;;;;;;1.05;0.55;;;17.20;86.20;;;;;;5033914;28;20048;-43
2024/03/25 04:52:32;;;;;;;1.00;0.57;;;17.20;86.20;;;;;;5033878;28;20033;-44
2024/03/25 04:54:58;;;;;;;1.13;0.63;;;17.20;86.20;;;;;;5033918;28;20477;-42
2024/03/25 04:57:24;;;;;;;2.58;0.68;;;17.20;86.20;;;;;;5033829;28;20059;-42
2024/03/25 04:59:49;;;;;;;1.42;0.60;;;17.20;86.20;;;;;;5034081;28;20535;-41
2024/03/25 05:02:15;;;;;;;1.02;0.55;;;17.10;86.10;;;;;;5033824;28;20028;-43
2024/03/25 05:04:41;;;;;;;0.90;0.50;;;17.10;86.10;;;;;;5033697;28;20052;-42
2024/03/25 05:07:07;;;;;;;3.53;0.70;;;17.10;86.10;;;;;;5033423;28;20473;-44
2024/03/25 05:09:32;;;;;;;1.17;0.47;;;17.10;86.10;;;;;;5033567;28;20052;-42
2024/03/25 05:11:58;;;;;;;0.80;0.60;;;17.10;86.20;;;;;;5033481;28;20508;-39
2024/03/25 05:14:24;;;;;;;1.13;0.50;;;17.10;86.10;;;;;;5032475;28;20048;-41
2024/03/25 05:16:52;;;;;;;0.98;0.50;;;17.10;86.20;;;;;;5033257;28;20037;-43
2024/03/25 05:19:18;;;;;;;1.98;0.82;;;17.10;86.20;;;;;;5033922;28;20412;-40
2024/03/25 05:21:44;;;;;;;1.70;0.57;;;17.20;86.20;;;;;;5033139;28;20025;-42
2024/03/25 05:24:10;;;;;;;1.48;0.50;;;17.10;86.10;;;;;;5033366;28;20022;-42
2024/03/25 05:26:35;;;;;;;0.93;0.70;;;17.10;86.10;;;;;;5033205;28;20485;-44
2024/03/25 05:29:01;;;;;;;1.45;0.70;;;17.10;86.10;;;;;;5033232;28;20476;-44
2024/03/25 05:31:27;;;;;;;1.08;0.63;;;17.10;86.20;;;;;;5033119;28;20047;-44
2024/03/25 05:33:53;;;;;;;1.25;0.70;;;17.10;86.10;;;;;;5033305;28;20032;-43
2024/03/25 05:36:18;;;;;;;0.80;0.60;;;17.10;86.10;;;;;;5032973;28;20288;-44
2024/03/25 05:38:44;;;;;;;1.05;0.52;;;17.10;86.20;;;;;;5031820;28;20025;-44
2024/03/25 05:41:10;;;;;;;1.35;0.60;;;17.10;86.20;;;;;;5032950;28;20028;-44
2024/03/25 05:43:37;;;;;;;1.67;0.77;;;17.10;86.20;;;;;;5031623;28;20037;-42
2024/03/25 05:46:03;;;;;;;1.85;0.70;;;17.10;86.10;;;;;;5032813;28;20076;-44
2024/03/25 05:48:30;;;;;;;1.38;0.63;;;17.10;86.20;;;;;;5032682;28;20025;-44
2024/03/25 05:51:10;;;;;;;2.15;1.00;;;17.10;86.20;;;;;;5031353;28;20032;-45
2024/03/25 05:53:37;;;;;;;4.18;1.13;;;17.10;84.20;;;;;;5032738;28;20112;-44
2024/03/25 05:56:03;;;;;;;2.30;1.00;;;17.00;82.90;;;;;;5032359;28;20477;-44
2024/03/25 05:58:29;;;;;;;3.10;1.10;;;16.90;82.50;;;;;;5033228;28;20037;-44
2024/03/25 06:00:54;;;;;;;3.42;1.17;;;16.90;82.60;;;;;;5032742;28;20033;-44
2024/03/25 06:03:21;;;;;;;3.05;1.00;;;16.90;82.70;;;;;;5032621;28;20075;-44
2024/03/25 06:05:47;;;;;;;3.13;1.27;;;16.90;82.90;;;;;;5032643;28;20056;-44
2024/03/25 06:08:20;;;;;;;3.13;1.10;;;16.90;83.10;;;;;;5032292;28;20081;-44
2024/03/25 06:10:45;;;;;;;1.80;1.00;;;16.90;83.30;;;;;;5032569;28;20037;-45
2024/03/25 06:13:11;;;;;;;3.13;1.00;;;16.90;83.40;;;;;;5032344;28;20025;-44
2024/03/25 06:15:37;;;;;;;2.80;1.10;;;16.90;83.50;;;;;;5032402;28;20022;-45
2024/03/25 06:18:03;;;;;;;2.22;1.10;;;16.90;83.70;;;;;;5032225;28;20029;-45
2024/03/25 06:20:28;;;;;;;3.53;0.93;;;16.90;83.80;;;;;;5032187;28;20033;-44
2024/03/25 06:22:54;;;;;;;1.77;0.98;;;16.90;83.90;;;;;;5032238;28;20021;-45
2024/03/25 06:25:19;;;;;;;2.85;0.93;;;16.90;84.00;;;;;;5030860;28;20052;-45
2024/03/25 06:27:46;;;;;;;3.33;1.10;;;17.00;84.10;;;;;;5032408;28;20033;-45
2024/03/25 06:35:43;;;;;;;1.67;0.82;;;16.90;84.30;;;;;;5032529;28;20052;-44
2024/03/25 06:38:09;;;;;;;2.53;0.90;;;16.90;84.40;;;;;;5031493;28;20140;-45
2024/03/25 06:40:34;;;;;;;2.45;1.17;;;16.90;84.50;;;;;;5031781;28;20029;-45
2024/03/25 06:43:00;;;;;;;3.00;1.00;;;16.90;84.50;;;;;;5031863;28;20018;-45
2024/03/25 06:45:25;;;;;;;2.97;0.95;;;16.90;84.60;;;;;;5031701;28;20160;-41
2024/03/25 06:47:51;;;;;;;2.53;0.90;;;16.90;84.60;;;;;;5031662;28;20025;-44
2024/03/25 06:50:17;;;;;;;2.08;1.00;;;16.90;84.60;;;;;;5031673;28;20021;-43
2024/03/25 06:52:42;;;;;;;5.30;0.80;;;16.90;84.70;;;;;;5031578;28;20044;-43
2024/03/25 06:55:08;;;;;;;2.22;1.00;;;16.90;84.70;;;;;;5031628;28;20038;-43
2024/03/25 06:57:34;;;;;;;1.88;1.00;;;16.90;84.70;;;;;;5031257;28;20451;-43
2024/03/25 06:59:59;;;;;;;1.98;1.05;;;16.90;84.70;;;;;;5031715;28;20600;-44
2024/03/25 07:02:25;;;;;;;2.13;1.02;;;16.90;84.80;;;;;;5031700;28;20060;-44
2024/03/25 07:04:50;;;;;;;1.83;0.77;;;16.90;84.80;;;;;;5031447;28;20025;-44
2024/03/25 07:07:16;;;;;;;2.05;0.85;;;16.90;84.80;;;;;;5031247;28;20021;-44
2024/03/25 07:09:41;;;;;;;1.77;0.90;;;16.90;84.90;;;;;;5031492;28;20028;-43
2024/03/25 07:12:07;;;;;;;1.50;0.80;;;17.00;85.00;;;;;;5031398;28;20056;-44
2024/03/25 07:14:33;;;;;;;1.90;0.90;;;17.00;85.10;;;;;;5031394;28;20025;-41
2024/03/25 07:16:59;;;;;;;1.75;0.93;;;17.00;85.10;;;;;;5031137;28;20637;-41
2024/03/25 07:19:24;;;;;;;1.95;0.88;;;17.00;85.10;;;;;;5032062;28;20021;-44
2024/03/25 07:21:50;;;;;;;1.23;0.80;;;17.00;85.10;;;;;;5031097;28;20036;-44
2024/03/25 07:24:15;;;;;;;1.27;0.80;;;17.00;85.10;;;;;;5029902;28;20021;-43
2024/03/25 07:26:41;;;;;;;2.03;0.90;;;17.00;85.20;;;;;;5031353;28;20049;-44
2024/03/25 07:29:07;;;;;;;1.33;0.80;;;17.00;85.30;;;;;;5031224;28;20556;-44
2024/03/25 07:31:33;;;;;;;2.00;1.10;;;17.00;85.30;;;;;;5031609;28;20029;-44
2024/03/25 07:33:58;;;;;;;2.55;0.75;;;17.00;85.30;;;;;;5031271;28;20469;-44
2024/03/25 07:36:24;;;;;;;1.70;0.77;;;17.10;85.40;;;;;;5032111;28;20083;-44
2024/03/25 07:38:50;;;;;;;1.80;0.82;;;17.10;85.50;;;;;;5035416;28;20022;-44
2024/03/25 07:41:15;;;;;;;5.30;1.15;;;17.10;85.50;;;;;;5035342;28;20030;-45
2024/03/25 07:43:41;;;;;;;2.40;1.00;;;17.10;84.30;;;;;;5034872;28;20034;-45
2024/03/25 07:46:06;;;;;;;3.40;1.50;;;17.10;83.20;;;;;;5035229;28;20029;-45
2024/03/25 07:48:32;;;;;;;3.30;1.30;;;17.10;82.90;;;;;;5035174;28;20124;-44
2024/03/25 07:50:58;;;;;;;2.53;1.20;;;17.20;82.90;;;;;;5034952;28;20477;-44
2024/03/25 07:53:23;;;;;;;3.95;1.30;;;17.20;82.80;;;;;;5034988;28;20025;-43
2024/03/25 07:55:51;;;;;;;2.10;0.80;;;17.30;82.90;;;;;;5034946;28;20021;-44
2024/03/25 07:58:16;;;;;;;2.90;1.15;;;17.30;82.90;;;;;;5034556;28;20057;-43
2024/03/25 08:00:42;;;;;;;3.10;1.15;;;17.40;83.10;;;;;;5034860;28;20477;-44
2024/03/25 08:03:08;;;;;;;2.28;0.75;;;17.50;83.00;;;;;;5035054;28;20047;-43
2024/03/25 08:05:33;;;;;;;2.03;0.88;;;17.50;83.00;;;;;;5034846;28;20021;-44
2024/03/25 08:07:59;;;;;;;2.33;0.95;;;17.50;83.00;;;;;;5034833;28;20523;-44
2024/03/25 08:10:24;;;;;;;2.60;1.02;;;17.60;83.10;;;;;;5034690;28;20120;-43
2024/03/25 08:12:50;;;;;;;1.95;1.30;;;17.70;83.10;;;;;;5034535;28;20025;-44
2024/03/25 08:15:15;;;;;;;2.00;1.00;;;17.70;83.00;;;;;;5033337;28;20029;-43
2024/03/25 08:17:41;;;;;;;2.33;1.00;;;17.80;83.80;;;;;;5034400;28;20113;-45
2024/03/25 08:20:08;;;;;;;1.70;0.80;;;17.80;83.00;;;;;;5034487;28;20032;-45
2024/03/25 08:22:34;;;;;;;1.35;0.82;;;17.90;83.00;;;;;;5029095;28;20026;-44
2024/03/25 08:24:59;;;;;;;2.08;0.80;;;18.00;83.00;;;;;;5014652;28;20026;-44
2024/03/25 08:27:25;;;;;;;2.63;1.08;;;18.00;83.00;;;;;;5014363;28;20096;-45
2024/03/25 08:29:53;;;;;;;1.63;0.80;;;18.10;82.90;;;;;;5012677;28;20368;-45
2024/03/25 08:32:19;;;;;;;1.98;0.90;;;18.20;82.90;;;;;;5013444;28;20059;-44
2024/03/25 08:34:45;;;;;;;1.83;0.90;;;18.20;82.80;;;;;;5014634;28;20034;-43
2024/03/25 08:37:10;;;;;;;2.35;0.82;;;18.30;82.70;;;;;;4985789;28;20050;-44
2024/03/25 08:39:36;;;;;;;1.27;0.63;;;18.40;82.70;;;;;;5006628;28;20034;-43
2024/03/25 08:42:02;;;;;;;1.38;0.80;;;18.40;82.60;;;;;;4994643;28;20472;-44
2024/03/25 08:44:27;;;;;;;2.05;1.02;;;18.50;82.40;;;;;;4994762;28;20053;-43
2024/03/25 08:46:53;;;;;;;2.03;0.80;;;18.60;82.40;;;;;;4994727;28;20485;-43
2024/03/25 08:49:18;;;;;;;1.58;0.70;;;18.60;82.20;;;;;;4994518;28;20105;-43
2024/03/25 08:51:44;;;;;;;4.95;1.00;;;18.80;82.20;;;;;;4994793;28;20474;-44
2024/03/25 08:54:09;;;;;;;4.03;0.90;;;18.80;82.00;;;;;;4994630;28;20034;-45
2024/03/25 08:56:35;;;;;;;1.63;0.70;;;18.80;81.80;;;;;;4994053;28;20037;-44
2024/03/25 08:59:01;;;;;;;1.23;0.60;;;18.90;81.70;;;;;;4994424;28;20026;-43
2024/03/25 09:01:27;;;;;;;1.20;0.68;;;19.00;81.60;;;;;;4994391;28;20019;-44
2024/03/25 09:03:52;;;;;;;1.00;0.60;;;19.10;81.50;;;;;;4994508;28;20022;-45
2024/03/25 09:06:18;;;;;;;1.25;0.60;;;19.20;81.30;;;;;;4994400;28;20062;-45
2024/03/25 09:11:28;;;;;;;1.40;0.73;;;19.30;79.60;;;;;;4994370;28;20041;-44
2024/03/25 09:13:53;;;;;;;5.50;0.98;;;19.40;78.10;;;;;;4994329;28;20026;-44
2024/03/25 09:16:19;;;;;;;2.20;0.75;;;19.40;78.20;;;;;;4993043;28;20417;-44
2024/03/25 09:18:45;;;;;;;3.33;1.10;;;19.40;77.70;;;;;;4994075;28;20034;-44
2024/03/25 09:21:11;;;;;;;2.15;0.90;;;19.50;77.80;;;;;;4994031;28;20029;-43
2024/03/25 09:23:36;;;;;;;2.25;0.80;;;19.50;77.80;;;;;;4994391;28;20034;-44
2024/03/25 09:26:02;;;;;;;3.65;0.82;;;19.60;77.90;;;;;;4993785;28;20070;-43
2024/03/25 09:28:28;;;;;;;3.88;1.20;;;19.60;76.50;;;;;;4993882;28;20032;-43
2024/03/25 09:30:53;;;;;;;1.77;0.70;;;19.60;74.70;;;;;;4993885;28;20034;-44
2024/03/25 09:33:19;;;;;;;2.67;0.80;;;19.60;74.10;;;;;;4993857;28;20030;-43
2024/03/25 09:35:45;;;;;;;3.85;1.10;;;19.60;74.00;;;;;;4993747;28;20084;-44
2024/03/25 09:38:10;;;;;;;4.35;1.15;;;19.60;74.10;;;;;;4993595;28;20029;-43
2024/03/25 09:40:39;;;;;;;2.15;0.90;;;19.70;74.30;;;;;;4993633;28;20034;-43
2024/03/25 09:43:10;;;;;;;2.25;0.65;;;19.60;74.40;;;;;;4993923;28;20165;-45
2024/03/25 09:45:36;;;;;;;1.83;0.95;;;19.70;74.60;;;;;;4993858;28;20113;-44
2024/03/25 09:48:05;;;;;;;3.70;0.73;;;19.60;74.70;;;;;;4992508;28;20118;-44
2024/03/25 09:50:31;;;;;;;2.53;0.65;;;19.70;74.90;;;;;;4993557;28;20034;-43
2024/03/25 09:52:56;;;;;;;2.85;0.80;;;19.70;75.00;;;;;;4993454;28;20037;-44
2024/03/25 09:55:22;;;;;;;2.35;0.60;;;19.70;75.10;;;;;;4993711;28;20038;-43
2024/03/25 09:57:48;;;;;;;2.35;0.70;;;19.70;75.20;;;;;;4993137;28;20121;-43
2024/03/25 10:00:14;;;;;;;2.20;0.73;;;19.70;75.30;;;;;;4992643;28;20526;-45
2024/03/25 10:02:41;;;;;;;1.35;0.70;;;19.70;75.40;;;;;;4993304;28;20023;-45
2024/03/25 10:05:08;;;;;;;1.40;0.68;;;19.70;75.50;;;;;;4993200;28;20018;-45
2024/03/25 10:07:34;;;;;;;2.10;0.70;;;19.70;75.60;;;;;;4992969;28;20030;-45
2024/03/25 10:10:04;;;;;;;1.50;0.80;;;19.70;75.60;;;;;;4993007;28;20038;-45
2024/03/25 10:12:31;;;;;;;4.05;0.77;;;19.70;75.70;;;;;;4993104;28;20034;-45
2024/03/25 10:14:57;;;;;;;2.25;0.65;;;19.70;75.70;;;;;;4993184;28;20038;-45
2024/03/25 10:17:23;;;;;;;2.25;0.63;;;19.70;75.80;;;;;;4992827;28;20469;-44
2024/03/25 10:19:48;;;;;;;1.80;0.75;;;19.70;76.00;;;;;;4992792;28;20034;-45
2024/03/25 10:22:14;;;;;;;1.27;0.60;;;19.70;76.00;;;;;;4992781;28;20030;-45
2024/03/25 10:24:40;;;;;;;1.25;0.50;;;19.60;76.00;;;;;;4992798;28;20524;-45
2024/03/25 10:27:09;;;;;;;1.17;0.50;;;19.60;76.20;;;;;;4992793;28;20049;-45
2024/03/25 10:29:35;;;;;;;2.35;0.60;;;19.60;76.30;;;;;;4993039;28;20038;-44
2024/03/25 10:32:01;;;;;;;0.82;0.50;;;19.60;76.50;;;;;;4992821;28;20022;-45
2024/03/25 10:34:27;;;;;;;1.42;0.43;;;19.50;76.50;;;;;;4992791;28;20038;-45
2024/03/25 10:36:57;;;;;;;1.35;0.50;;;19.50;76.60;;;;;;4992351;28;20142;-45
2024/03/25 10:39:26;;;;;;;1.02;0.45;;;19.50;76.70;;;;;;4992741;28;20022;-42
2024/03/25 10:41:55;;;;;;;3.90;0.60;;;19.50;76.80;;;;;;4992460;28;20445;-44
2024/03/25 10:44:22;;;;;;;2.35;0.68;;;19.50;76.90;;;;;;4992511;28;20080;-44
2024/03/25 10:46:53;;;;;;;2.28;0.60;;;19.50;77.00;;;;;;4992404;28;20109;-44
2024/03/25 10:49:37;;;;;;;1.50;0.52;;;19.50;77.20;;;;;;4992878;28;20084;-44
2024/03/25 10:52:06;;;;;;;2.97;0.65;;;19.50;77.10;;;;;;4992809;28;20030;-44
2024/03/25 10:54:32;;;;;;;1.77;0.68;;;19.50;77.20;;;;;;4992261;28;20034;-44
2024/03/25 10:56:59;;;;;;;1.40;0.40;;;19.50;77.30;;;;;;4990701;28;20125;-44
2024/03/25 10:59:26;;;;;;;2.08;0.55;;;19.50;77.30;;;;;;4992212;28;20106;-44
2024/03/25 11:01:53;;;;;;;1.23;0.50;;;19.50;77.30;;;;;;4992110;28;20050;-44
2024/03/25 11:04:20;;;;;;;1.42;0.52;;;19.50;77.40;;;;;;4992238;28;20030;-44
2024/03/25 11:06:46;;;;;;;1.48;0.68;;;19.50;77.40;;;;;;4992001;28;20169;-44
2024/03/25 11:09:25;;;;;;;1.15;0.40;;;19.50;77.60;;;;;;4991986;28;20105;-44
2024/03/25 11:11:55;;;;;;;0.60;0.20;;;19.60;77.70;;;;;;4992020;28;20026;-44
2024/03/25 11:14:25;;;;;;;1.08;0.50;;;19.60;77.80;;;;;;4992448;28;20026;-44
2024/03/25 11:16:52;;;;;;;1.02;0.50;;;19.70;77.90;;;;;;4991906;28;20026;-44
2024/03/25 11:19:18;;;;;;;1.20;0.55;;;19.90;77.70;;;;;;4992210;28;20027;-45
2024/03/25 11:21:44;;;;;;;2.25;0.80;;;20.20;77.30;;;;;;4991944;28;20031;-44
2024/03/25 11:24:10;;;;;;;1.52;0.63;;;20.50;76.60;;;;;;4992030;28;20453;-44
2024/03/25 11:26:41;;;;;;;3.10;0.55;;;20.80;75.90;;;;;;4991699;28;20030;-44
2024/03/25 11:29:07;;;;;;;1.23;0.50;;;21.10;75.20;;;;;;4992092;28;20113;-44
2024/03/25 11:31:35;;;;;;;1.08;0.55;;;21.50;74.50;;;;;;4991841;28;20117;-44
2024/03/25 11:34:08;;;;;;;2.08;0.50;;;21.80;73.70;;;;;;4991875;28;20037;-45
2024/03/25 11:36:34;;;;;;;1.20;0.60;;;22.00;73.00;;;;;;4991668;28;20034;-45
2024/03/25 11:39:04;;;;;;;1.92;0.70;;;22.30;72.40;;;;;;4991808;28;20153;-45
2024/03/25 11:41:32;;;;;;;1.88;0.68;;;22.50;71.80;;;;;;4991651;28;20022;-44
2024/03/25 11:43:57;;;;;;;1.10;0.43;;;22.80;71.30;;;;;;4992000;28;20026;-44
2024/03/25 11:46:25;;;;;;;1.35;0.65;;;23.00;70.70;;;;;;4991642;28;20026;-44
2024/03/25 11:48:51;;;;;;;1.50;0.63;;;23.20;70.20;;;;;;4991586;28;20031;-44
2024/03/25 11:51:17;;;;;;;1.83;0.70;;;23.50;69.80;;;;;;4991594;28;20102;-44
2024/03/25 11:53:43;;;;;;;2.03;0.70;;;23.70;69.40;;;;;;4991515;28;20031;-44
2024/03/25 11:56:10;;;;;;;1.60;0.60;;;23.80;68.90;;;;;;4991542;28;20030;-45
2024/03/25 11:58:36;;;;;;;1.70;0.50;;;23.90;68.40;;;;;;4991552;28;20039;-44
2024/03/25 12:01:02;;;;;;;1.13;0.40;;;24.10;68.20;;;;;;4991719;28;20069;-45
2024/03/25 12:03:28;;;;;;;0.82;0.50;;;24.20;67.90;;;;;;4991714;28;20483;-44
2024/03/25 12:05:55;;;;;;;1.85;0.70;;;24.40;67.70;;;;;;4991576;28;20026;-44
2024/03/25 12:08:22;;;;;;;1.23;0.60;;;24.50;68.20;;;;;;4991268;28;20038;-44
2024/03/25 12:13:32;;;;;;;1.20;0.50;;;24.60;67.00;;;;;;4991862;28;20509;-44
2024/03/25 12:15:57;;;;;;;0.88;0.32;;;24.80;66.70;;;;;;4991487;28;20034;-45
2024/03/25 12:18:23;;;;;;;1.45;0.85;;;24.80;66.50;;;;;;4991234;28;20036;-45
2024/03/25 12:20:49;;;;;;;0.77;0.40;;;24.90;66.40;;;;;;4991220;28;20023;-45
2024/03/25 12:23:14;;;;;;;1.08;0.50;;;25.00;66.30;;;;;;4992914;28;20018;-45
2024/03/25 12:25:41;;;;;;;0.85;0.40;;;25.00;66.20;;;;;;4995154;28;20026;-45
2024/03/25 12:28:09;;;;;;;1.50;0.63;;;25.10;66.10;;;;;;4994890;28;20035;-45
2024/03/25 12:30:55;;;;;;;2.78;1.08;;;25.10;66.00;;;;;;4994875;28;20101;-44
2024/03/25 12:33:22;;;;;;;2.20;0.73;;;25.20;63.40;;;;;;4994914;28;20026;-44
2024/03/25 12:35:52;;;;;;;2.15;0.88;;;25.20;62.10;;;;;;4994857;28;20023;-43
2024/03/25 12:38:30;;;;;;;0.98;0.50;;;25.20;63.60;;;;;;4994607;28;20029;-44
2024/03/25 12:41:04;;;;;;;2.78;0.55;;;24.80;63.20;;;;;;4994717;28;20513;-44
2024/03/25 12:43:33;;;;;;;;;;;24.60;63.80;;;;;;4995431;28;20120;-43
2024/03/25 12:45:59;;;;;;;6.20;1.13;;;24.40;63.10;;;;;;5013845;28;19920;-40
2024/03/25 12:48:25;;;;;;;1.65;0.90;;;24.30;61.50;;;;;;5013818;28;20034;-43
2024/03/25 12:50:53;;;;;;;3.03;0.70;;;24.20;60.10;;;;;;5014647;28;20041;-43
2024/03/25 12:53:19;;;;;;;3.58;1.05;;;24.20;59.50;;;;;;5014241;28;20029;-43